Time;durP1;ratioP1;P1;durP2;ratioP2;P2;SDS_P1;SDS_P2;PMS_P1;PMS_P2;Temp;Humidity;BMP_temperature;BMP_pressure;BME280_temperature;BME280_humidity;BME280_pressure;Samples;Min_cycle;Max_cycle;Signal;HPM_P1;HPM_P2
2022/06/30 00:00:05;;;;;;;7.80;6.50;;;;;;;22.95;100.00;98738.38;4420759;32;20930;-71
2022/06/30 00:02:52;;;;;;;9.27;8.25;;;;;;;23.14;100.00;98713.16;4419052;32;20355;-72
2022/06/30 00:05:18;;;;;;;8.38;7.05;;;;;;;23.31;100.00;98760.78;4423529;32;20352;-72
2022/06/30 00:07:45;;;;;;;9.57;6.85;;;;;;;22.89;100.00;98716.97;4424268;32;20075;-73
2022/06/30 00:10:11;;;;;;;13.05;8.02;;;;;;;22.81;100.00;98705.72;4420570;32;20435;-73
2022/06/30 00:12:39;;;;;;;9.70;7.80;;;;;;;22.81;100.00;98711.22;4424258;32;20068;-72
2022/06/30 00:15:06;;;;;;;16.42;7.68;;;;;;;22.71;100.00;98714.41;4416705;32;20119;-73
2022/06/30 00:17:33;;;;;;;13.95;7.65;;;;;;;22.81;100.00;98738.66;4402658;32;20051;-73
2022/06/30 00:20:01;;;;;;;11.90;8.18;;;;;;;22.59;100.00;98736.31;4415615;32;20058;-73
2022/06/30 00:22:27;;;;;;;13.18;7.05;;;;;;;22.55;100.00;98702.47;4398575;32;20057;-73
2022/06/30 00:24:54;;;;;;;12.13;7.80;;;;;;;22.68;100.00;98734.28;4416151;32;20065;-73
2022/06/30 00:27:20;;;;;;;12.45;7.70;;;;;;;22.78;100.00;98739.34;4412878;32;20054;-72
2022/06/30 00:29:47;;;;;;;10.25;7.75;;;;;;;22.49;100.00;98694.44;4410868;32;20038;-72
2022/06/30 00:32:13;;;;;;;10.60;8.23;;;;;;;22.59;100.00;98736.31;4416421;32;20046;-72
2022/06/30 00:34:46;;;;;;;16.37;8.07;;;;;;;22.58;100.00;98740.22;4418397;32;20060;-72
2022/06/30 00:37:13;;;;;;;11.95;7.47;;;;;;;22.48;100.00;98703.81;4428464;32;20459;-72
2022/06/30 00:39:39;;;;;;;8.88;6.93;;;;;;;22.70;100.00;98726.50;4431633;32;20033;-73
2022/06/30 00:42:06;;;;;;;10.55;7.32;;;;;;;22.62;100.00;98697.22;4432034;32;20367;-73
2022/06/30 00:44:33;;;;;;;12.32;6.85;;;;;;;22.90;100.00;98730.34;4421026;32;20691;-73
2022/06/30 00:47:00;;;;;;;8.05;7.22;;;;;;;22.94;100.00;98724.97;4417494;32;20050;-72
2022/06/30 00:49:27;;;;;;;11.27;7.20;;;;;;;22.96;100.00;98717.19;4418650;32;20082;-73
2022/06/30 00:51:54;;;;;;;7.80;6.85;;;;;;;23.07;100.00;98712.91;4418271;32;20173;-73
2022/06/30 00:54:22;;;;;;;11.73;7.55;;;;;;;22.74;100.00;98680.81;4416986;32;20394;-72
2022/06/30 00:56:50;;;;;;;10.57;7.10;;;;;;;22.78;100.00;98673.47;4400956;32;20060;-72
2022/06/30 00:59:19;;;;;;;12.93;8.02;;;;;;;22.96;100.00;98711.72;4416823;32;20083;-72
2022/06/30 01:01:46;;;;;;;10.90;7.75;;;;;;;22.94;100.00;98716.75;4417059;32;20051;-73
2022/06/30 01:04:17;;;;;;;7.62;6.93;;;;;;;22.87;100.00;98717.31;4416646;32;20043;-72
2022/06/30 01:06:46;;;;;;;8.80;7.57;;;;;;;22.91;100.00;98711.94;4417110;32;20076;-73
2022/06/30 01:12:41;;;;;;;9.82;8.00;;;;;;;22.56;100.00;98673.88;4417394;32;20482;-72
2022/06/30 01:14:44;;;;;;;11.27;7.75;;;;;;;22.57;100.00;98711.16;4417130;32;20043;-73
2022/06/30 01:17:11;;;;;;;11.10;7.93;;;;;;;22.56;100.00;98712.28;4417228;32;20043;-73
2022/06/30 01:19:37;;;;;;;11.77;8.13;;;;;;;22.28;100.00;98666.22;4416417;32;20352;-73
2022/06/30 01:22:03;;;;;;;10.50;8.32;;;;;;;22.55;100.00;98707.97;4416712;32;20033;-73
2022/06/30 01:24:30;;;;;;;11.32;8.05;;;;;;;22.62;100.00;98698.00;4416133;32;20051;-73
2022/06/30 01:26:57;;;;;;;12.55;8.73;;;;;;;22.70;100.00;98696.31;4416647;32;20034;-73
2022/06/30 01:29:23;;;;;;;8.88;7.10;;;;;;;22.38;100.00;98637.59;4416628;32;20034;-72
2022/06/30 01:31:50;;;;;;;12.00;8.10;;;;;;;22.49;100.00;98672.47;4416836;32;20042;-72
2022/06/30 01:34:17;;;;;;;13.07;8.90;;;;;;;22.67;100.00;98655.84;4416173;32;20462;-73
2022/06/30 01:36:43;;;;;;;10.85;8.05;;;;;;;22.67;100.00;98677.78;4415349;32;20376;-72
2022/06/30 01:39:10;;;;;;;12.88;8.93;;;;;;;22.30;100.00;98680.41;4416523;32;20440;-73
2022/06/30 01:41:36;;;;;;;8.90;8.02;;;;;;;22.28;100.00;98645.06;4421440;32;20038;-72
2022/06/30 01:44:02;;;;;;;11.80;8.90;;;;;;;22.39;100.00;98650.97;4428817;32;20060;-72
2022/06/30 01:46:29;;;;;;;16.75;9.48;;;;;;;22.33;100.00;98646.84;4431560;32;20049;-73
2022/06/30 01:48:55;;;;;;;9.27;8.25;;;;;;;22.14;100.00;98645.34;4418327;32;20448;-73
2022/06/30 01:51:21;;;;;;;14.10;8.38;;;;;;;22.17;100.00;98657.59;4406856;32;20035;-73
2022/06/30 01:53:56;;;;;;;15.40;9.45;;;;;;;22.40;100.00;98690.97;4387073;32;20043;-73
2022/06/30 01:56:22;;;;;;;12.13;8.48;;;;;;;22.59;100.00;98682.25;4399989;32;20043;-73
2022/06/30 01:58:48;;;;;;;11.40;8.38;;;;;;;22.32;100.00;98647.97;4401158;32;20370;-73
2022/06/30 02:01:15;;;;;;;9.02;8.02;;;;;;;22.72;100.00;98677.59;4401182;32;20082;-72
2022/06/30 02:03:42;;;;;;;13.57;8.65;;;;;;;22.51;100.00;98641.97;4401372;32;20421;-73
2022/06/30 02:06:08;;;;;;;8.68;7.87;;;;;;;22.74;100.00;98680.81;4401038;32;20046;-73
2022/06/30 02:08:34;;;;;;;15.93;10.27;;;;;;;22.72;100.00;98680.34;4418031;32;20161;-72
2022/06/30 02:11:01;;;;;;;13.10;9.00;;;;;;;22.24;100.00;98640.59;4401143;32;20054;-73
2022/06/30 02:13:27;;;;;;;16.02;8.90;;;;;;;22.59;100.00;98681.44;4414081;32;20056;-73
2022/06/30 02:15:54;;;;;;;11.30;8.73;;;;;;;22.27;100.00;98642.66;4415872;32;20416;-73
2022/06/30 02:18:20;;;;;;;8.77;7.85;;;;;;;22.12;100.00;98680.53;4416086;32;20076;-72
2022/06/30 02:20:47;;;;;;;12.55;8.90;;;;;;;22.05;100.00;98677.53;4415843;32;20038;-72
2022/06/30 02:23:13;;;;;;;13.20;7.70;;;;;;;21.93;100.00;98644.56;4402781;32;20034;-73
2022/06/30 02:25:40;;;;;;;13.15;8.90;;;;;;;22.19;100.00;98677.25;4416130;32;20072;-73
2022/06/30 02:28:06;;;;;;;11.15;8.80;;;;;;;22.15;100.00;98651.66;4414449;32;20046;-72
2022/06/30 02:30:33;;;;;;;11.40;9.25;;;;;;;22.18;100.00;98629.03;4414146;32;20042;-73
2022/06/30 02:33:00;;;;;;;16.83;8.70;;;;;;;22.38;100.00;98670.50;4415735;32;20054;-73
2022/06/30 02:35:26;;;;;;;14.70;9.77;;;;;;;22.54;100.00;98668.72;4416047;32;20054;-73
2022/06/30 02:37:53;;;;;;;11.77;8.52;;;;;;;22.70;100.00;98682.59;4416038;32;20060;-73
2022/06/30 02:40:20;;;;;;;12.27;9.20;;;;;;;22.36;100.00;98645.37;4407249;32;20441;-74
2022/06/30 02:42:47;;;;;;;15.07;8.82;;;;;;;22.46;100.00;98689.63;4400360;32;20437;-73
2022/06/30 02:45:13;;;;;;;12.35;8.57;;;;;;;22.14;100.00;98656.31;4399857;32;20080;-72
2022/06/30 02:47:42;;;;;;;10.65;8.93;;;;;;;22.28;100.00;98693.62;4400372;32;20039;-72
2022/06/30 02:50:11;;;;;;;20.58;10.00;;;;;;;22.41;100.00;98689.81;4387283;32;20417;-71
2022/06/30 02:52:38;;;;;;;13.77;8.65;;;;;;;22.55;100.00;98735.37;4398886;32;20039;-72
2022/06/30 02:55:06;;;;;;;10.73;9.02;;;;;;;21.84;100.00;98756.97;4400580;32;20108;-73
2022/06/30 02:57:35;;;;;;;15.02;9.90;;;;;;;22.09;100.00;98804.56;4400027;32;20388;-73
2022/06/30 03:00:03;;;;;;;12.60;9.07;;;;;;;22.30;100.00;98787.38;4399345;32;20361;-72
2022/06/30 03:02:30;;;;;;;14.98;9.40;;;;;;;22.30;100.00;98823.81;4400143;32;20046;-73
2022/06/30 03:04:56;;;;;;;13.35;11.10;;;;;;;22.13;100.00;98813.75;4400424;32;20042;-72
2022/06/30 03:07:22;;;;;;;14.40;11.65;;;;;;;22.38;100.00;98775.53;4400516;32;20047;-72
2022/06/30 03:09:49;;;;;;;13.57;10.43;;;;;;;22.54;100.00;98822.34;4389835;32;20352;-72
2022/06/30 03:12:15;;;;;;;16.55;13.20;;;;;;;22.31;100.00;98841.09;4403214;32;20066;-73
2022/06/30 03:14:42;;;;;;;26.95;11.40;;;;;;;22.14;100.00;98826.28;4403002;32;20445;-73
2022/06/30 03:17:08;;;;;;;13.95;10.52;;;;;;;22.52;100.00;98799.16;4403340;32;20069;-72
2022/06/30 03:19:34;;;;;;;16.05;11.57;;;;;;;22.47;100.00;98806.44;4402446;32;20076;-72
2022/06/30 03:22:01;;;;;;;12.43;10.50;;;;;;;22.13;100.00;98785.53;4402280;32;20039;-72
2022/06/30 03:24:27;;;;;;;15.20;11.43;;;;;;;22.20;100.00;98785.00;4403332;32;20051;-72
2022/06/30 03:26:53;;;;;;;22.45;11.35;;;;;;;22.51;100.00;98828.50;4389069;32;20094;-72
2022/06/30 03:29:20;;;;;;;13.88;10.52;;;;;;;22.55;100.00;98801.22;4402644;32;20395;-72
2022/06/30 03:31:52;;;;;;;10.80;8.98;;;;;;;22.26;100.00;98778.19;4402711;32;20365;-72
2022/06/30 03:34:19;;;;;;;15.15;10.60;;;;;;;21.79;100.00;98759.91;4403088;32;20119;-72
2022/06/30 03:36:45;;;;;;;15.82;10.88;;;;;;;22.12;100.00;98828.56;4402944;32;20070;-71
2022/06/30 03:39:12;;;;;;;20.25;10.45;;;;;;;22.09;100.00;98807.31;4399619;32;20064;-72
2022/06/30 03:41:38;;;;;;;12.32;10.10;;;;;;;21.93;100.00;98767.91;4388929;32;20095;-72
2022/06/30 03:44:04;;;;;;;13.38;10.52;;;;;;;22.13;100.00;98785.53;4402494;32;20057;-72
2022/06/30 03:46:31;;;;;;;16.83;10.68;;;;;;;21.89;100.00;98811.63;4402616;32;20065;-72
2022/06/30 03:48:57;;;;;;;12.80;10.40;;;;;;;21.91;100.00;98844.97;4402820;32;20030;-71
2022/06/30 03:51:23;;;;;;;15.98;10.35;;;;;;;21.74;100.00;98807.47;4402519;32;20051;-72
2022/06/30 03:53:50;;;;;;;12.93;9.48;;;;;;;21.70;100.00;98773.69;4400858;32;20068;-72
2022/06/30 03:56:17;;;;;;;15.45;10.48;;;;;;;21.62;100.00;98799.19;4401147;32;20454;-72
2022/06/30 03:58:43;;;;;;;15.95;11.10;;;;;;;21.50;100.00;98790.84;4402347;32;20348;-72
2022/06/30 04:01:09;;;;;;;18.35;10.80;;;;;;;21.53;100.00;98795.66;4402762;32;20081;-72
2022/06/30 04:03:36;;;;;;;15.32;10.48;;;;;;;21.01;100.00;98748.12;4402700;32;20050;-72
2022/06/30 04:06:02;;;;;;;13.48;10.30;;;;;;;21.33;100.00;98819.87;4402548;32;20322;-72
2022/06/30 04:08:28;;;;;;;10.95;9.73;;;;;;;21.21;100.00;98786.88;4402367;32;20068;-73
2022/06/30 04:10:55;;;;;;;15.68;11.30;;;;;;;20.80;100.00;98747.19;4402202;32;20097;-72
2022/06/30 04:13:21;;;;;;;15.75;10.05;;;;;;;20.99;100.00;98805.09;4402450;32;20060;-72
2022/06/30 04:15:47;;;;;;;17.17;10.57;;;;;;;21.07;100.00;98822.66;4401348;32;20338;-72
2022/06/30 04:18:14;;;;;;;10.82;9.48;;;;;;;20.99;100.00;98783.22;4401562;32;20051;-72
2022/06/30 04:20:40;;;;;;;14.32;10.32;;;;;;;21.19;100.00;98791.88;4400745;32;20050;-72
2022/06/30 04:23:07;;;;;;;17.35;10.13;;;;;;;20.75;100.00;98750.09;4402296;32;20035;-73
2022/06/30 04:25:33;;;;;;;13.35;10.07;;;;;;;21.09;100.00;98776.59;4402475;32;20077;-73
2022/06/30 04:28:01;;;;;;;12.05;9.48;;;;;;;20.95;100.00;98754.06;4401893;32;20367;-73
2022/06/30 04:33:19;;;;;;;20.58;10.65;;;;;;;20.63;100.00;98737.88;4402800;32;20440;-73
2022/06/30 04:35:45;;;;;;;13.00;9.70;;;;;;;21.01;100.00;98783.72;4402568;32;20384;-73
2022/06/30 04:38:11;;;;;;;14.23;10.88;;;;;;;20.54;100.00;98748.00;4402460;32;20026;-73
2022/06/30 04:43:23;;;;;;;22.70;11.88;;;;;;;20.79;100.00;98800.28;4401871;32;20072;-73
2022/06/30 04:45:50;;;;;;;17.87;11.18;;;;;;;20.90;100.00;98796.13;4402144;32;20062;-73
2022/06/30 04:48:16;;;;;;;19.33;10.82;;;;;;;20.86;100.00;98797.88;4402119;32;20425;-73
2022/06/30 04:50:42;;;;;;;22.42;10.73;;;;;;;21.10;100.00;98827.47;4402197;32;20072;-73
2022/06/30 04:53:09;;;;;;;22.60;11.75;;;;;;;20.99;100.00;98827.00;4400655;32;20046;-74
2022/06/30 04:55:35;;;;;;;12.98;10.52;;;;;;;20.94;100.00;98824.44;4402262;32;20031;-74
2022/06/30 04:58:02;;;;;;;16.33;11.12;;;;;;;20.85;100.00;98831.84;4401375;32;20043;-73
2022/06/30 05:00:28;;;;;;;17.00;9.70;;;;;;;20.84;100.00;98820.09;4400853;32;20043;-73
2022/06/30 05:02:55;;;;;;;10.77;9.38;;;;;;;20.88;100.00;98820.25;4423602;32;20445;-73
2022/06/30 05:05:21;;;;;;;12.73;11.12;;;;;;;20.94;100.00;98829.91;4408348;32;20043;-74
2022/06/30 05:07:48;;;;;;;13.27;10.55;;;;;;;20.74;100.00;98795.00;4400383;32;20061;-73
2022/06/30 05:10:14;;;;;;;15.45;10.82;;;;;;;20.95;100.00;98825.22;4401853;32;20057;-73
2022/06/30 05:12:40;;;;;;;12.37;10.20;;;;;;;20.88;100.00;98792.09;4401182;32;20035;-73
2022/06/30 05:15:08;;;;;;;15.75;10.25;;;;;;;20.80;100.00;98780.03;4400991;32;20403;-73
2022/06/30 05:17:34;;;;;;;16.08;10.30;;;;;;;21.14;100.00;98827.63;4399798;32;20054;-73
2022/06/30 05:20:01;;;;;;;10.55;9.35;;;;;;;21.15;100.00;98816.34;4400829;32;20035;-73
2022/06/30 05:22:27;;;;;;;11.00;9.55;;;;;;;21.31;100.00;98822.09;4400602;32;20400;-73
2022/06/30 05:27:39;;;;;;;12.32;9.15;;;;;;;21.02;100.00;98820.88;4400840;32;20092;-75
2022/06/30 05:30:07;;;;;;;12.68;9.82;;;;;;;21.04;100.00;98799.47;4405279;32;20081;-71
2022/06/30 05:32:34;;;;;;;12.20;9.30;;;;;;;21.11;100.00;98806.38;4430665;32;20370;-72
2022/06/30 05:35:01;;;;;;;14.43;9.73;;;;;;;21.26;100.00;98800.38;4430916;32;20039;-72
2022/06/30 05:37:27;;;;;;;11.05;8.77;;;;;;;21.54;100.00;98797.25;4431863;32;20623;-71
2022/06/30 05:39:53;;;;;;;18.48;9.35;;;;;;;21.21;100.00;98795.88;4418519;32;20517;-71
2022/06/30 05:42:20;;;;;;;15.52;10.05;;;;;;;20.81;100.00;98754.28;4416383;32;20042;-71
2022/06/30 05:44:46;;;;;;;13.98;8.57;;;;;;;20.77;100.00;98734.16;4415959;32;20072;-71
2022/06/30 05:47:13;;;;;;;14.25;10.23;;;;;;;21.21;100.00;98770.44;4416249;32;20469;-71
2022/06/30 05:49:39;;;;;;;16.23;9.88;;;;;;;21.25;100.00;98784.28;4415353;32;20038;-71
2022/06/30 05:52:06;;;;;;;23.27;9.95;;;;;;;21.34;100.00;98783.13;4415883;32;20042;-71
2022/06/30 05:54:32;;;;;;;15.43;9.50;;;;;;;21.23;100.00;98777.19;4415924;32;20953;-70
2022/06/30 05:56:59;;;;;;;16.55;9.77;;;;;;;21.39;100.00;98766.50;4415917;32;20387;-71
2022/06/30 05:59:26;;;;;;;11.30;9.13;;;;;;;21.31;100.00;98775.56;4415895;32;20060;-70
2022/06/30 06:01:52;;;;;;;13.43;9.18;;;;;;;21.46;100.00;98795.31;4401959;32;20364;-71
2022/06/30 06:04:18;;;;;;;14.40;9.57;;;;;;;21.39;100.00;98791.16;4415981;32;20338;-71
2022/06/30 06:06:45;;;;;;;14.95;9.07;;;;;;;21.64;100.00;98796.13;4413400;32;20050;-70
2022/06/30 06:09:11;;;;;;;16.42;10.13;;;;;;;21.62;100.00;98773.69;4414024;32;20383;-72
2022/06/30 06:11:38;;;;;;;11.20;9.25;;;;;;;21.69;100.00;98787.69;4414057;32;20039;-71
2022/06/30 06:14:04;;;;;;;10.52;9.23;;;;;;;21.99;100.00;98785.78;4405763;32;20802;-71
2022/06/30 06:16:30;;;;;;;15.40;9.40;;;;;;;21.62;100.00;98796.44;4399323;32;20207;-70
2022/06/30 06:18:57;;;;;;;15.88;10.75;;;;;;;21.51;100.00;98792.47;4400613;32;20065;-71
2022/06/30 06:21:24;;;;;;;17.55;12.63;;;;;;;21.69;100.00;98799.44;4387062;32;20348;-71
2022/06/30 06:23:50;;;;;;;16.42;9.98;;;;;;;21.41;100.00;98756.06;4400798;32;20035;-70
2022/06/30 06:26:17;;;;;;;18.45;10.27;;;;;;;21.26;100.00;98742.09;4407671;32;20050;-69
2022/06/30 06:31:29;;;;;;;14.75;10.38;;;;;;;22.08;100.00;98789.25;4412832;32;20060;-72
2022/06/30 06:33:56;;;;;;;12.48;9.52;;;;;;;21.90;100.00;98765.81;4414893;32;20363;-71
2022/06/30 06:36:22;;;;;;;15.15;10.52;;;;;;;21.99;100.00;98790.47;4415714;32;20034;-71
2022/06/30 06:38:49;;;;;;;17.23;10.73;;;;;;;21.76;100.00;98791.53;4414902;32;20047;-71
2022/06/30 06:41:15;;;;;;;13.10;11.27;;;;;;;21.76;100.00;98783.31;4400662;32;20048;-70
2022/06/30 06:43:42;;;;;;;20.20;11.65;;;;;;;21.87;100.00;98782.94;4415304;32;20039;-71
2022/06/30 06:46:08;;;;;;;19.45;11.10;;;;;;;21.55;100.00;98735.87;4415259;32;20058;-70
2022/06/30 06:48:34;;;;;;;17.17;10.45;;;;;;;21.74;100.00;98769.13;4415760;32;20382;-70
2022/06/30 06:51:01;;;;;;;13.20;9.05;;;;;;;21.71;100.00;98753.34;4400981;32;20391;-69
2022/06/30 06:53:27;;;;;;;14.15;11.60;;;;;;;21.44;100.00;98727.19;4414208;32;20383;-70
2022/06/30 06:55:53;;;;;;;13.98;9.63;;;;;;;21.61;100.00;98741.97;4412662;32;20098;-71
2022/06/30 06:58:20;;;;;;;15.30;10.27;;;;;;;21.64;100.00;98744.84;4417123;32;20056;-69
2022/06/30 07:00:47;;;;;;;23.75;11.95;;;;;;;21.90;100.00;98738.41;4430174;32;20492;-69
2022/06/30 07:03:13;;;;;;;15.45;9.65;;;;;;;22.36;100.00;98724.91;4430866;32;20050;-69
2022/06/30 07:05:40;;;;;;;18.08;11.65;;;;;;;21.94;100.00;98720.19;4404060;32;20080;-71
2022/06/30 07:08:07;;;;;;;19.55;11.27;;;;;;;22.16;100.00;98734.69;4400267;32;20101;-69
2022/06/30 07:10:33;;;;;;;14.48;10.77;;;;;;;22.17;100.00;98686.97;4411769;32;20034;-70
2022/06/30 07:13:00;;;;;;;19.98;11.25;;;;;;;22.01;100.00;98690.28;4416777;32;20367;-70
2022/06/30 07:15:26;;;;;;;16.58;10.85;;;;;;;22.55;100.00;98740.88;4422315;32;20181;-68
2022/06/30 07:17:53;;;;;;;16.92;10.40;;;;;;;22.83;100.00;98741.91;4421490;32;20464;-68
2022/06/30 07:20:19;;;;;;;15.60;11.02;;;;;;;23.13;100.00;98744.50;4422638;32;20076;-68
2022/06/30 07:22:45;;;;;;;14.60;11.02;;;;;;;23.18;100.00;98741.56;4421878;32;20082;-68
2022/06/30 07:25:12;;;;;;;16.83;10.95;;;;;;;23.24;100.00;98733.88;4420528;32;20052;-68
2022/06/30 07:27:38;;;;;;;19.00;11.57;;;;;;;23.03;100.00;98699.03;4421085;32;20094;-69
2022/06/30 07:30:06;;;;;;;14.30;11.68;;;;;;;23.71;100.00;98741.69;4420131;32;20042;-70
2022/06/30 07:32:32;;;;;;;16.17;10.77;;;;;;;23.64;100.00;98724.16;4415405;32;20034;-69
2022/06/30 07:34:58;;;;;;;16.83;11.32;;;;;;;23.58;100.00;98721.66;4413902;32;20072;-75
2022/06/30 07:37:25;;;;;;;12.57;11.38;;;;;;;23.63;100.00;98723.38;4400635;32;20073;-70
2022/06/30 07:39:51;;;;;;;20.35;12.25;;;;;;;24.08;100.00;98727.13;4414434;32;20051;-70
2022/06/30 07:42:17;;;;;;;13.77;11.52;;;;;;;24.06;100.00;98723.91;4415081;32;20056;-69
2022/06/30 07:44:44;;;;;;;14.80;11.60;;;;;;;24.25;100.00;98709.53;4414113;32;20051;-69
2022/06/30 07:47:10;;;;;;;17.77;12.27;;;;;;;24.22;100.00;98688.22;4415155;32;20030;-69
2022/06/30 07:49:38;;;;;;;16.55;11.88;;;;;;;24.46;100.00;98723.13;4415498;32;20395;-69
2022/06/30 07:52:05;;;;;;;13.48;10.93;;;;;;;24.49;100.00;98730.66;4418267;32;20110;-71
2022/06/30 07:54:32;;;;;;;16.98;11.07;;;;;;;24.38;100.00;98732.31;4422643;32;20041;-69
2022/06/30 07:56:59;;;;;;;18.65;12.52;;;;;;;24.48;100.00;98729.06;4411464;32;20050;-70
2022/06/30 07:59:26;;;;;;;15.10;10.73;;;;;;;24.19;100.00;98688.91;4427029;32;20109;-69
2022/06/30 08:01:52;;;;;;;13.85;11.70;;;;;;;24.54;100.00;98722.16;4409785;32;20034;-76
2022/06/30 08:04:19;;;;;;;13.05;11.65;;;;;;;24.63;100.00;98735.78;4401917;32;20397;-76
2022/06/30 08:06:45;;;;;;;17.60;10.15;;;;;;;24.64;100.00;98707.91;4413840;32;20043;-75
2022/06/30 08:09:11;;;;;;;14.63;12.73;;;;;;;24.82;100.00;98724.12;4420862;32;20035;-70
2022/06/30 08:11:38;;;;;;;20.25;13.05;;;;;;;24.72;100.00;98699.88;4424238;32;20062;-69
2022/06/30 08:14:12;;;;;;;18.55;11.95;;;;;;;25.05;100.00;98734.53;4420925;32;20124;-69
2022/06/30 08:16:38;;;;;;;20.70;13.10;;;;;;;25.19;100.00;98738.50;4411335;32;20345;-69
2022/06/30 08:19:05;;;;;;;17.40;12.43;;;;;;;24.63;100.00;98698.06;4425001;32;20034;-69
2022/06/30 08:21:31;;;;;;;15.70;12.70;;;;;;;24.65;100.00;98708.72;4426262;32;20047;-70
2022/06/30 08:23:58;;;;;;;15.75;11.40;;;;;;;25.13;100.00;98725.31;4431898;32;20041;-69
2022/06/30 08:26:24;;;;;;;13.70;10.45;;;;;;;25.37;100.00;98730.69;4432526;32;20058;-69
2022/06/30 08:28:50;;;;;;;16.50;10.80;;;;;;;25.30;100.00;98702.94;4418016;32;20043;-69
2022/06/30 08:31:17;;;;;;;16.25;11.65;;;;;;;25.67;100.00;98733.00;4402551;32;20100;-69
2022/06/30 08:33:43;;;;;;;13.18;10.70;;;;;;;25.20;100.00;98692.44;4402305;32;20314;-70
2022/06/30 08:36:10;;;;;;;19.62;10.68;;;;;;;25.59;100.00;98702.84;4387307;32;20061;-69
2022/06/30 08:38:36;;;;;;;19.45;12.37;;;;;;;25.89;100.00;98723.22;4399738;32;20415;-71
2022/06/30 08:43:48;;;;;;;14.73;11.05;;;;;;;26.15;100.00;98735.66;4400809;32;20039;-69
2022/06/30 08:46:15;;;;;;;16.80;11.35;;;;;;;26.43;100.00;98718.09;4401693;32;20039;-69
2022/06/30 08:48:42;;;;;;;22.15;11.93;;;;;;;26.72;100.00;98738.78;4402186;32;20053;-70
2022/06/30 08:51:14;;;;;;;17.48;11.57;;;;;;;26.78;100.00;98740.09;4401617;32;20039;-71
2022/06/30 08:53:51;;;;;;;17.10;12.45;;;;;;;26.74;100.00;98739.25;4400210;32;20035;-70
2022/06/30 08:56:20;;;;;;;18.02;13.77;;;;;;;26.61;100.00;98707.41;4401322;32;20093;-69
2022/06/30 08:58:49;;;;;;;16.02;13.27;;;;;;;26.12;100.00;98735.56;4400407;32;20039;-69
2022/06/30 09:01:16;;;;;;;33.05;13.75;;;;;;;26.10;100.00;98708.34;4400607;32;20112;-69
2022/06/30 09:03:44;;;;;;;20.20;12.02;;;;;;;26.43;100.00;98743.72;4399368;32;20031;-70
2022/06/30 09:06:10;;;;;;;19.40;12.80;;;;;;;26.53;100.00;98738.78;4399353;32;20035;-69
2022/06/30 09:08:37;;;;;;;18.10;12.60;;;;;;;26.41;100.00;98714.91;4401690;32;20082;-69
2022/06/30 09:11:04;;;;;;;17.58;11.75;;;;;;;26.87;100.00;98747.34;4400607;32;20058;-69
2022/06/30 09:13:44;;;;;;;15.85;12.05;;;;;;;26.97;100.00;98747.56;4401681;32;20060;-69
2022/06/30 09:16:12;;;;;;;20.67;12.95;;;;;;;26.90;100.00;98741.91;4387905;32;20034;-69
2022/06/30 09:18:39;;;;;;;20.98;12.13;;;;;;;27.03;100.00;98739.78;4386948;32;20027;-70
2022/06/30 09:21:26;;;;;;;20.77;13.00;;;;;;;27.13;100.00;98739.16;4387110;32;20083;-69
2022/06/30 09:23:52;;;;;;;19.52;11.75;;;;;;;27.38;100.00;98744.37;4401600;32;20047;-69
2022/06/30 09:26:22;;;;;;;17.92;10.55;;;;;;;27.86;100.00;98744.72;4404462;32;20039;-69
2022/06/30 09:28:54;;;;;;;13.98;11.20;;;;;;;28.00;100.00;98751.66;4417100;32;20038;-69
2022/06/30 09:31:42;;;;;;;13.88;11.40;;;;;;;27.63;100.00;98744.75;4412662;32;20051;-68
2022/06/30 09:34:21;;;;;;;18.77;11.30;;;;;;;27.82;100.00;98756.91;4411865;32;20046;-69
2022/06/30 09:36:49;;;;;;;14.87;11.05;;;;;;;28.17;100.00;98748.31;4425103;32;20106;-69
2022/06/30 09:39:17;;;;;;;30.75;12.40;;;;;;;27.97;100.00;98716.41;4430991;32;20033;-69
2022/06/30 09:41:45;;;;;;;17.98;11.20;;;;;;;27.87;100.00;98749.09;4428527;32;20038;-70
2022/06/30 09:44:15;;;;;;;19.62;10.63;;;;;;;28.17;100.00;98740.03;4408908;32;20037;-68
2022/06/30 09:47:12;;;;;;;15.65;10.57;;;;;;;28.47;100.00;98744.75;4422194;32;20068;-69
2022/06/30 09:49:42;;;;;;;16.27;12.27;;;;;;;28.49;100.00;98734.09;4413619;32;20060;-70
2022/06/30 09:52:22;;;;;;;17.85;11.63;;;;;;;28.31;100.00;98699.88;4404719;32;20391;-71
2022/06/30 09:55:01;;;;;;;16.92;11.60;;;;;;;28.74;100.00;98736.41;4409997;32;20060;-68
2022/06/30 09:57:30;;;;;;;19.15;11.35;;;;;;;28.92;100.00;98734.59;4399133;32;20074;-69
2022/06/30 10:00:05;;;;;;;14.38;11.98;;;;;;;29.01;100.00;98731.53;4410544;32;20393;-70
2022/06/30 10:02:42;;;;;;;22.17;11.20;;;;;;;29.11;100.00;98730.84;4414459;32;20050;-71
2022/06/30 10:05:10;;;;;;;18.73;12.13;;;;;;;29.44;100.00;98731.13;4407425;32;20094;-70
2022/06/30 10:07:38;;;;;;;20.77;11.02;;;;;;;29.59;100.00;98732.84;4415405;32;20432;-69
2022/06/30 10:10:08;;;;;;;18.37;10.65;;;;;;;29.34;100.00;98730.69;4409822;32;20446;-69
2022/06/30 10:12:36;;;;;;;15.20;11.05;;;;;;;29.40;100.00;98691.50;4400203;32;20157;-69
2022/06/30 10:15:06;;;;;;;25.95;11.45;;;;;;;29.75;100.00;98718.69;4410445;32;20064;-71
2022/06/30 10:17:37;;;;;;;22.73;11.27;;;;;;;29.65;100.00;98692.47;4415735;32;20068;-70
2022/06/30 10:20:04;;;;;;;11.55;10.27;;;;;;;29.74;100.00;98705.19;4414300;32;20662;-69
2022/06/30 10:22:31;;;;;;;14.73;11.93;;;;;;;29.83;100.00;98708.47;4403477;32;20026;-70
2022/06/30 10:24:58;;;;;;;21.37;11.30;;;;;;;29.44;100.00;98679.25;4422093;32;20062;-70
2022/06/30 10:27:27;;;;;;;13.60;11.55;;;;;;;29.73;100.00;98706.41;4420219;32;20042;-70
2022/06/30 10:29:55;;;;;;;13.52;11.55;;;;;;;29.85;100.00;98675.56;4415496;32;20031;-70
2022/06/30 10:32:26;;;;;;;20.60;11.07;;;;;;;30.20;100.00;98710.25;4415093;32;20401;-70
2022/06/30 10:35:31;;;;;;;20.77;10.55;;;;;;;30.29;100.00;98676.56;4416302;32;20055;-70
2022/06/30 10:38:12;;;;;;;12.52;9.98;;;;;;;30.59;100.00;98701.31;4390437;32;20026;-71
2022/06/30 10:40:58;;;;;;;17.37;9.52;;;;;;;30.19;100.00;98692.00;4405393;32;20068;-71
2022/06/30 10:43:24;;;;;;;21.95;11.12;;;;;;;30.21;100.00;98703.50;4400784;32;20027;-70
2022/06/30 10:45:56;;;;;;;20.58;11.85;;;;;;;29.44;100.00;98659.03;4399420;32;20398;-70
2022/06/30 10:48:23;;;;;;;25.98;11.52;;;;;;;30.82;100.00;98694.59;4400502;32;20095;-69
2022/06/30 10:50:51;;;;;;;14.65;10.68;;;;;;;30.47;100.00;98671.09;4400624;32;20088;-68
2022/06/30 10:53:38;;;;;;;11.30;9.80;;;;;;;31.06;100.00;98699.41;4398984;32;20496;-69
2022/06/30 10:56:11;;;;;;;16.10;10.25;;;;;;;31.01;100.00;98702.59;4399272;32;20038;-70
2022/06/30 10:59:08;;;;;;;13.57;11.15;;;;;;;31.06;100.00;98688.28;4399695;32;20068;-70
2022/06/30 11:01:34;;;;;;;13.62;9.57;;;;;;;31.51;100.00;98699.81;4400553;32;20077;-69
2022/06/30 11:04:02;;;;;;;20.48;10.48;;;;;;;31.95;100.00;98694.19;4400808;32;20348;-70
2022/06/30 11:06:58;;;;;;;20.65;9.90;;;;;;;32.61;100.00;98699.09;4399561;32;20073;-70
2022/06/30 11:09:57;;;;;;;18.05;9.48;;;;;;;32.67;100.00;98693.94;4399432;32;20066;-69
2022/06/30 11:12:29;;;;;;;9.65;8.55;;;;;;;32.57;100.00;98662.91;4401172;32;20061;-69
2022/06/30 11:14:58;;;;;;;13.43;9.68;;;;;;;33.41;100.00;98693.81;4403343;32;20082;-69
2022/06/30 11:17:26;;;;;;;21.15;9.90;;;;;;;32.91;100.00;98662.31;4402637;32;20061;-69
2022/06/30 11:20:05;;;;;;;10.43;9.50;;;;;;;32.67;100.00;98677.22;4402503;32;20064;-69
2022/06/30 11:22:32;;;;;;;19.02;9.88;;;;;;;33.50;100.00;98688.53;4401488;32;20039;-70
2022/06/30 11:25:03;;;;;;;15.30;9.50;;;;;;;33.65;100.00;98687.22;4403147;32;20124;-69
2022/06/30 11:27:32;;;;;;;15.75;9.50;;;;;;;33.39;100.00;98657.16;4401969;32;20076;-70
2022/06/30 11:30:02;;;;;;;17.67;9.82;;;;;;;33.30;100.00;98677.97;4403980;32;20094;-69
2022/06/30 11:32:29;;;;;;;11.55;10.35;;;;;;;33.13;100.00;98678.88;4405130;32;20074;-70
2022/06/30 11:34:59;;;;;;;16.95;9.48;;;;;;;33.71;100.00;98675.63;4404434;32;20388;-69